Time;durP1;ratioP1;P1;durP2;ratioP2;P2;SDS_P1;SDS_P2;PMS_P1;PMS_P2;Temp;Humidity;BMP_temperature;BMP_pressure;BME280_temperature;BME280_humidity;BME280_pressure;Samples;Min_cycle;Max_cycle;Signal;HPM_P1;HPM_P2
2020/12/16 00:01:56;;;;;;;24.35;13.78;;;;;;;4.06;73.21;101638.73;1741906;81;21149;-43
2020/12/16 00:04:24;;;;;;;26.17;13.93;;;;;;;4.10;73.12;101633.81;1745663;80;21149;-42
2020/12/16 00:06:52;;;;;;;31.00;15.43;;;;;;;4.15;73.09;101642.13;1750805;80;21939;-39
2020/12/16 00:09:19;;;;;;;30.02;16.73;;;;;;;4.16;73.18;101643.87;1741718;81;21110;-42
2020/12/16 00:11:47;;;;;;;30.35;16.10;;;;;;;4.17;73.16;101645.63;1746688;80;21177;-40
2020/12/16 00:14:14;;;;;;;34.05;19.40;;;;;;;4.17;73.12;101641.67;1696495;83;21198;-42
2020/12/16 00:16:42;;;;;;;27.93;14.90;;;;;;;4.17;73.07;101643.86;1744767;80;21186;-40
2020/12/16 00:19:09;;;;;;;28.52;14.18;;;;;;;4.17;73.84;101646.50;1687926;83;21174;-39
2020/12/16 00:21:36;;;;;;;28.90;14.90;;;;;;;4.17;73.23;101650.45;1751101;81;21743;-39
2020/12/16 00:24:04;;;;;;;25.05;14.18;;;;;;;4.19;73.19;101650.00;1745883;81;21122;-45
2020/12/16 00:26:33;;;;;;;32.98;13.43;;;;;;;4.20;73.09;101649.09;1710055;83;21167;-44
2020/12/16 00:29:00;;;;;;;25.27;12.68;;;;;;;4.20;73.04;101649.09;1745631;80;21162;-44
2020/12/16 00:31:27;;;;;;;29.77;15.23;;;;;;;4.17;73.08;101650.45;1745519;81;21126;-41
2020/12/16 00:33:56;;;;;;;29.92;15.58;;;;;;;4.15;72.96;101650.05;1743221;80;21145;-41
2020/12/16 00:36:24;;;;;;;34.58;16.57;;;;;;;4.12;72.94;101649.65;1746354;80;21145;-43
2020/12/16 00:38:52;;;;;;;29.15;16.55;;;;;;;4.11;72.90;101645.28;1742421;81;21457;-39
2020/12/16 00:41:20;;;;;;;30.75;14.38;;;;;;;4.12;72.81;101648.33;1737443;80;21118;-41
2020/12/16 00:43:47;;;;;;;30.43;15.03;;;;;;;4.14;72.74;101648.32;1737963;80;21406;-40
2020/12/16 00:46:15;;;;;;;30.55;15.43;;;;;;;4.14;72.78;101645.23;1735484;80;21135;-42
2020/12/16 00:48:42;;;;;;;33.83;15.53;;;;;;;4.12;72.77;101638.63;1738311;80;21134;-43
2020/12/16 00:51:13;;;;;;;22.70;13.35;;;;;;;4.12;72.72;101640.41;1739036;80;21674;-43
2020/12/16 00:53:41;;;;;;;26.50;14.55;;;;;;;4.12;72.67;101639.95;1717649;80;21573;-40
2020/12/16 00:56:09;;;;;;;29.45;13.75;;;;;;;4.12;72.67;101639.09;1716232;81;21142;-40
2020/12/16 00:58:37;;;;;;;27.58;14.83;;;;;;;4.13;72.65;101634.22;1736257;80;21864;-43
2020/12/16 01:01:06;;;;;;;28.55;14.60;;;;;;;4.10;72.69;101632.95;1740011;82;21284;-43
2020/12/16 01:03:33;;;;;;;28.70;15.40;;;;;;;4.08;72.85;101639.59;1740024;80;21172;-42
2020/12/16 01:06:01;;;;;;;35.23;16.45;;;;;;;4.06;72.80;101636.09;1740275;80;21583;-41
2020/12/16 01:08:29;;;;;;;29.85;15.80;;;;;;;4.05;72.78;101636.09;1736553;80;21169;-40
2020/12/16 01:10:58;;;;;;;25.57;14.83;;;;;;;4.03;72.71;101638.78;1740495;82;21139;-39
2020/12/16 01:13:26;;;;;;;24.37;13.72;;;;;;;4.01;72.69;101632.64;1738473;80;21157;-40
2020/12/16 01:15:57;;;;;;;28.60;14.40;;;;;;;4.03;72.64;101636.56;1721629;81;21177;-40
2020/12/16 01:18:24;;;;;;;;;;;;;;;4.06;72.55;101633.45;1744108;80;21648;-42
2020/12/16 01:20:53;;;;;;;27.60;13.60;;;;;;;4.07;72.41;101628.58;1739722;80;20268;-40
2020/12/16 01:23:32;;;;;;;28.27;13.98;;;;;;;4.09;72.38;101621.98;1796924;78;23397;-40
2020/12/16 01:26:00;;;;;;;24.20;14.00;;;;;;;4.06;72.35;101619.38;1774360;79;21178;-42
2020/12/16 01:28:30;;;;;;;25.60;14.40;;;;;;;4.06;72.35;101618.93;1770422;80;21742;-41
2020/12/16 01:30:59;;;;;;;29.37;16.35;;;;;;;4.07;72.26;101615.38;1776167;79;21149;-41
2020/12/16 01:33:27;;;;;;;27.02;16.20;;;;;;;4.06;72.18;101617.61;1722864;81;21108;-41
2020/12/16 01:36:02;;;;;;;28.95;16.48;;;;;;;4.04;72.20;101615.44;1732938;82;21153;-40
2020/12/16 01:38:31;;;;;;;25.02;14.07;;;;;;;4.02;72.21;101611.06;1713264;82;21157;-42
2020/12/16 01:41:07;;;;;;;28.35;15.25;;;;;;;4.01;72.26;101615.94;1696642;84;21160;-40
2020/12/16 01:43:46;;;;;;;37.67;23.85;;;;;;;4.05;72.24;101608.38;1785863;79;38479;-41
2020/12/16 01:46:15;;;;;;;29.90;16.30;;;;;;;4.05;72.24;101616.30;1768432;79;21101;-40
2020/12/16 01:48:43;;;;;;;29.87;16.40;;;;;;;4.14;72.04;101610.04;1773044;79;21549;-44
2020/12/16 01:51:15;;;;;;;32.28;17.73;;;;;;;4.15;72.00;101607.81;1746059;80;21659;-41
2020/12/16 01:53:45;;;;;;;26.68;15.88;;;;;;;4.12;71.97;101604.31;1741541;80;21132;-41
2020/12/16 01:56:14;;;;;;;27.35;16.67;;;;;;;4.10;71.92;101606.55;1751811;80;21137;-41
2020/12/16 01:58:43;;;;;;;31.45;15.65;;;;;;;4.05;71.98;101604.42;1720214;80;21327;-41
2020/12/16 02:01:14;;;;;;;21.80;13.28;;;;;;;4.03;72.02;101607.52;1725481;82;21121;-42
2020/12/16 02:03:42;;;;;;;30.32;15.13;;;;;;;4.03;72.08;101600.92;1722588;82;21189;-41
2020/12/16 02:06:12;;;;;;;28.62;13.95;;;;;;;4.05;72.05;101596.05;1735442;80;21142;-43
2020/12/16 02:08:40;;;;;;;27.70;15.08;;;;;;;4.05;72.05;101597.37;1749583;80;21525;-42
2020/12/16 02:11:09;;;;;;;28.30;15.28;;;;;;;4.04;72.05;101591.67;1724641;82;21161;-41
2020/12/16 02:13:38;;;;;;;28.12;14.45;;;;;;;4.02;72.09;101595.23;1718129;82;21120;-41
2020/12/16 02:16:07;;;;;;;28.83;16.32;;;;;;;4.01;72.11;101594.36;1725759;80;21160;-41
2020/12/16 02:18:35;;;;;;;28.77;16.40;;;;;;;4.01;72.12;101597.00;1663869;83;21161;-41
2020/12/16 02:21:05;;;;;;;27.10;15.23;;;;;;;4.01;72.14;101595.69;1682434;84;21187;-40
2020/12/16 02:23:34;;;;;;;30.08;16.90;;;;;;;4.01;72.14;101601.41;1682574;84;21593;-40
2020/12/16 02:26:03;;;;;;;27.62;15.88;;;;;;;3.99;72.20;101601.88;1711247;82;21157;-41
2020/12/16 02:28:32;;;;;;;24.25;13.80;;;;;;;3.99;72.18;101594.83;1711582;82;21801;-41
2020/12/16 02:31:00;;;;;;;25.08;13.88;;;;;;;4.01;72.09;101594.36;1712384;82;21153;-41
2020/12/16 02:33:38;;;;;;;20.48;10.85;;;;;;;4.00;72.07;101592.59;1679951;85;21139;-43
2020/12/16 02:36:07;;;;;;;20.65;12.18;;;;;;;4.01;72.00;101594.81;1687376;83;22077;-42
2020/12/16 02:38:46;;;;;;;19.48;11.65;;;;;;;4.00;71.92;101599.20;1710877;82;21568;-43
2020/12/16 02:41:15;;;;;;;20.12;11.83;;;;;;;3.97;71.94;101590.01;1714645;82;21640;-42
2020/12/16 02:43:43;;;;;;;23.00;13.03;;;;;;;3.97;71.90;101593.97;1690298;83;21173;-42
2020/12/16 02:46:11;;;;;;;18.77;12.68;;;;;;;3.95;71.91;101582.55;1732647;81;21581;-44
2020/12/16 02:48:39;;;;;;;21.15;11.97;;;;;;;3.93;71.92;101588.74;1736124;82;21145;-43
2020/12/16 02:51:07;;;;;;;16.32;11.95;;;;;;;3.92;71.96;101590.52;1738395;81;21177;-41
2020/12/16 02:53:35;;;;;;;20.10;11.85;;;;;;;3.95;71.91;101590.47;1734852;81;21145;-41
2020/12/16 02:56:20;;;;;;;18.92;11.20;;;;;;;3.95;71.86;101585.19;1735759;81;21133;-43
2020/12/16 02:58:50;;;;;;;17.15;11.10;;;;;;;3.94;71.86;101584.78;1732155;82;21142;-42
2020/12/16 03:01:17;;;;;;;15.08;10.70;;;;;;;3.93;71.84;101588.74;1730241;81;21126;-42
2020/12/16 03:03:53;;;;;;;22.20;17.57;;;;;;;3.98;71.85;101586.49;1771195;79;28321;-44
2020/12/16 03:06:25;;;;;;;16.73;11.08;;;;;;;3.98;71.83;101589.55;1755927;80;21138;-41
2020/12/16 03:08:55;;;;;;;15.65;10.43;;;;;;;4.09;71.60;101582.37;1767434;80;21110;-41
2020/12/16 03:11:24;;;;;;;17.10;11.75;;;;;;;4.09;71.48;101578.41;1736914;80;21145;-44
2020/12/16 03:13:53;;;;;;;18.07;11.50;;;;;;;4.07;71.42;101582.38;1757830;80;21531;-42
2020/12/16 03:16:21;;;;;;;18.82;12.68;;;;;;;4.05;71.39;101578.89;1764087;79;21153;-40
2020/12/16 03:18:50;;;;;;;19.23;14.23;;;;;;;4.03;71.40;101580.70;1756976;80;21629;-42
2020/12/16 03:21:23;;;;;;;17.15;12.37;;;;;;;4.00;71.44;101582.49;1755800;80;21141;-40
2020/12/16 03:23:53;;;;;;;18.25;13.93;;;;;;;3.99;71.46;101578.98;1763031;80;21128;-44
2020/12/16 03:26:33;;;;;;;20.27;12.00;;;;;;;4.03;71.48;101582.02;1808729;78;23085;-43
2020/12/16 03:29:06;;;;;;;18.25;12.45;;;;;;;4.01;71.44;101585.58;1776151;80;21137;-43
2020/12/16 03:31:48;;;;;;;19.10;12.33;;;;;;;4.05;71.42;101581.53;1801797;77;22983;-42
2020/12/16 03:34:17;;;;;;;15.23;11.15;;;;;;;4.00;71.39;101582.04;1697885;83;21184;-42
2020/12/16 03:36:56;;;;;;;18.35;12.55;;;;;;;4.04;71.42;101582.44;1803955;78;23128;-41
2020/12/16 03:39:25;;;;;;;18.55;12.82;;;;;;;4.01;71.38;101582.94;1776947;80;21557;-40
2020/12/16 03:41:53;;;;;;;17.42;11.80;;;;;;;3.99;71.39;101580.77;1775193;80;21623;-42
2020/12/16 03:44:22;;;;;;;19.65;12.10;;;;;;;3.99;71.43;101586.91;1770110;79;21664;-40
2020/12/16 03:46:52;;;;;;;19.92;12.93;;;;;;;3.98;71.45;101586.49;1773488;79;21471;-43
2020/12/16 03:49:20;;;;;;;17.02;11.12;;;;;;;3.98;71.45;101582.95;1717026;81;21626;-44
2020/12/16 03:51:58;;;;;;;18.17;12.33;;;;;;;3.99;71.37;101584.27;1704250;83;21183;-41
2020/12/16 03:54:29;;;;;;;19.98;13.38;;;;;;;3.98;71.38;101589.55;1684242;83;21345;-39
2020/12/16 03:56:58;;;;;;;20.10;13.25;;;;;;;3.96;71.38;101589.59;1679656;83;21173;-42
2020/12/16 03:59:30;;;;;;;19.30;14.20;;;;;;;3.90;71.45;101589.20;1687338;83;21154;-40
2020/12/16 04:02:12;;;;;;;18.57;14.75;;;;;;;3.89;71.52;101591.88;1684233;83;21307;-42
2020/12/16 04:04:41;;;;;;;18.40;12.60;;;;;;;3.88;71.57;101595.40;1692525;83;21178;-42
2020/12/16 04:07:10;;;;;;;19.00;13.08;;;;;;;3.90;71.61;101600.22;1678838;83;21173;-41
2020/12/16 04:09:39;;;;;;;17.40;11.88;;;;;;;3.93;71.60;101603.27;1687310;83;21180;-42
2020/12/16 04:12:06;;;;;;;19.57;13.30;;;;;;;3.92;71.55;101603.71;1687810;83;21181;-42
2020/12/16 04:14:36;;;;;;;19.37;12.18;;;;;;;3.91;71.52;101601.98;1688269;83;21145;-43
2020/12/16 04:17:05;;;;;;;18.70;12.60;;;;;;;3.88;71.52;101606.85;1691673;83;21165;-40
2020/12/16 04:19:42;;;;;;;18.52;13.35;;;;;;;3.92;71.55;101602.84;1757865;78;23126;-41
2020/12/16 04:22:09;;;;;;;23.20;13.53;;;;;;;3.86;71.56;101613.91;1728793;80;21154;-40
2020/12/16 04:24:39;;;;;;;19.95;13.25;;;;;;;3.84;71.64;101610.41;1706467;80;21142;-42
2020/12/16 04:27:09;;;;;;;18.62;12.58;;;;;;;3.82;71.63;101608.23;1732352;80;21165;-40
2020/12/16 04:29:38;;;;;;;21.73;13.55;;;;;;;3.84;71.66;101614.83;1731912;80;21158;-41
2020/12/16 04:32:07;;;;;;;17.12;12.43;;;;;;;3.87;71.69;101618.73;1731441;80;21178;-40
2020/12/16 04:34:36;;;;;;;19.25;14.07;;;;;;;3.87;71.65;101618.28;1735325;81;21122;-44
2020/12/16 04:37:05;;;;;;;18.10;13.08;;;;;;;3.87;71.65;101611.69;1736878;82;21121;-43
2020/12/16 04:39:34;;;;;;;18.90;13.20;;;;;;;3.90;71.61;101615.59;1731488;82;21133;-42
2020/12/16 04:42:02;;;;;;;19.48;14.53;;;;;;;3.92;71.58;101618.23;1734311;82;21165;-41
2020/12/16 04:44:33;;;;;;;19.20;13.03;;;;;;;3.95;71.52;101612.91;1728567;80;21552;-41
2020/12/16 04:47:02;;;;;;;18.70;13.30;;;;;;;3.96;71.44;101613.35;1735636;80;21149;-41
2020/12/16 04:49:32;;;;;;;21.57;14.33;;;;;;;3.97;71.40;101610.26;1734493;80;21149;-41
2020/12/16 04:51:59;;;;;;;18.40;12.88;;;;;;;3.95;71.43;101614.22;1716295;82;21153;-41
2020/12/16 04:54:29;;;;;;;20.43;13.60;;;;;;;3.94;71.41;101628.33;1708546;82;21135;-42
2020/12/16 04:56:59;;;;;;;17.32;12.35;;;;;;;3.90;71.42;101623.97;1720815;82;21480;-48
2020/12/16 04:59:35;;;;;;;18.95;13.43;;;;;;;3.95;71.43;101618.64;1800216;78;23077;-42
2020/12/16 05:02:10;;;;;;;18.37;12.15;;;;;;;3.88;71.51;101628.39;1781615;79;21161;-42
2020/12/16 05:04:40;;;;;;;17.42;12.70;;;;;;;3.92;71.49;101623.52;1775034;80;21160;-43
2020/12/16 05:07:11;;;;;;;22.45;13.95;;;;;;;3.95;71.42;101629.20;1772871;79;21546;-43
2020/12/16 05:09:47;;;;;;;23.35;15.50;;;;;;;3.94;71.34;101629.65;1742352;80;21129;-40
2020/12/16 05:12:16;;;;;;;18.40;13.38;;;;;;;3.90;71.38;101621.33;1775674;79;21149;-43
2020/12/16 05:14:44;;;;;;;15.85;12.75;;;;;;;3.90;71.38;101628.80;1775468;79;21254;-41
2020/12/16 05:17:12;;;;;;;20.23;13.90;;;;;;;3.92;71.38;101626.60;1775466;79;21743;-42
2020/12/16 05:19:44;;;;;;;18.20;12.53;;;;;;;3.94;71.35;101633.61;1772959;80;21130;-42
2020/12/16 05:22:28;;;;;;;19.02;13.15;;;;;;;3.95;71.31;101631.38;1779971;80;21153;-41
2020/12/16 05:24:59;;;;;;;18.67;13.03;;;;;;;3.93;71.28;101634.94;1776929;79;21374;-41
2020/12/16 05:27:28;;;;;;;19.00;12.23;;;;;;;3.90;71.27;101637.16;1774564;79;21125;-42
2020/12/16 05:30:06;;;;;;;18.37;13.35;;;;;;;3.87;71.34;101624.88;1780514;79;21477;-41
2020/12/16 05:32:35;;;;;;;18.30;13.30;;;;;;;3.87;71.34;101623.56;1772423;79;21133;-41
2020/12/16 05:35:26;;;;;;;19.95;14.18;;;;;;;3.86;71.33;101626.24;1778983;79;21153;-40
2020/12/16 05:38:01;;;;;;;19.77;12.03;;;;;;;3.87;71.36;101627.97;1779189;80;21149;-40
2020/12/16 05:40:30;;;;;;;19.12;13.78;;;;;;;3.87;71.33;101625.33;1772481;79;21161;-41
2020/12/16 05:42:57;;;;;;;21.60;13.18;;;;;;;3.87;71.30;101630.61;1773810;80;21108;-43
2020/12/16 05:45:28;;;;;;;19.73;12.93;;;;;;;3.88;71.25;101623.11;1718331;81;21155;-40
2020/12/16 05:48:10;;;;;;;16.52;11.78;;;;;;;3.86;71.24;101627.11;1741907;81;21151;-42
2020/12/16 05:50:46;;;;;;;15.68;11.20;;;;;;;3.86;71.24;101620.52;1731920;81;21191;-41
2020/12/16 05:53:24;;;;;;;17.55;12.65;;;;;;;3.87;71.11;101620.05;1685700;82;21165;-40
2020/12/16 05:55:58;;;;;;;16.12;10.90;;;;;;;3.87;71.06;101622.70;1693052;82;21184;-45
2020/12/16 05:58:31;;;;;;;17.07;11.75;;;;;;;3.84;71.10;101625.38;1680756;82;21188;-40
2020/12/16 06:01:01;;;;;;;16.57;11.93;;;;;;;3.84;71.00;101619.65;1652869;84;21519;-41
2020/12/16 06:03:32;;;;;;;14.15;9.23;;;;;;;3.84;70.92;101628.02;1655290;84;21320;-41
2020/12/16 06:06:02;;;;;;;15.32;10.95;;;;;;;3.85;70.82;101625.80;1655225;84;21142;-41
2020/12/16 06:08:35;;;;;;;12.07;10.48;;;;;;;3.85;70.64;101625.34;1653928;84;21451;-42
2020/12/16 06:11:03;;;;;;;18.67;12.35;;;;;;;3.82;70.49;101628.03;1655505;84;21162;-43
2020/12/16 06:13:32;;;;;;;14.23;11.25;;;;;;;3.80;70.41;101633.77;1656248;84;21165;-42
2020/12/16 06:16:04;;;;;;;16.17;11.75;;;;;;;3.79;70.26;101629.39;1656215;84;21936;-42
2020/12/16 06:18:39;;;;;;;15.95;11.03;;;;;;;3.77;70.20;101632.48;1652974;84;21161;-41
2020/12/16 06:21:10;;;;;;;14.58;10.05;;;;;;;3.75;70.18;101627.67;1655907;84;21146;-42
2020/12/16 06:23:42;;;;;;;16.42;10.23;;;;;;;3.75;70.36;101636.91;1656050;84;21138;-42
2020/12/16 06:26:15;;;;;;;13.53;10.20;;;;;;;3.75;70.33;101634.27;1655226;84;21637;-41
2020/12/16 06:28:44;;;;;;;16.85;11.48;;;;;;;3.75;70.23;101637.36;1674069;83;21682;-42
2020/12/16 06:31:26;;;;;;;15.18;11.95;;;;;;;3.74;70.19;101639.58;1645700;85;21186;-41
2020/12/16 06:34:04;;;;;;;15.23;12.23;;;;;;;3.74;70.26;101637.81;1672413;84;21189;-43
2020/12/16 06:36:40;;;;;;;13.25;9.40;;;;;;;3.76;70.18;101641.77;1668758;84;21280;-44
2020/12/16 06:39:19;;;;;;;14.10;10.13;;;;;;;3.75;70.05;101642.18;1669866;83;21594;-44
2020/12/16 06:41:58;;;;;;;17.50;12.10;;;;;;;3.76;70.01;101639.12;1655343;84;21170;-44
2020/12/16 06:44:29;;;;;;;11.83;10.48;;;;;;;3.77;70.00;101640.86;1652768;84;21161;-43
2020/12/16 06:46:57;;;;;;;13.75;11.28;;;;;;;3.77;69.84;101642.17;1647935;85;22325;-46
2020/12/16 06:49:27;;;;;;;11.88;10.28;;;;;;;3.75;69.79;101639.55;1647742;85;21309;-44
2020/12/16 06:52:10;;;;;;;13.13;10.80;;;;;;;3.75;69.82;101635.59;1652142;84;21154;-43
2020/12/16 06:54:44;;;;;;;13.18;11.22;;;;;;;3.74;69.43;101642.22;1653477;84;21155;-42
2020/12/16 06:57:20;;;;;;;14.35;10.85;;;;;;;3.71;69.16;101648.86;1654720;84;21175;-45
2020/12/16 06:59:52;;;;;;;11.70;10.45;;;;;;;3.70;69.19;101651.92;1657308;84;21150;-43
2020/12/16 07:02:37;;;;;;;13.32;11.25;;;;;;;3.71;69.19;101650.18;1655522;84;21123;-44
2020/12/16 07:05:06;;;;;;;14.85;11.85;;;;;;;3.69;69.28;101652.83;1649747;84;21162;-43
2020/12/16 07:07:47;;;;;;;12.25;10.18;;;;;;;3.66;69.27;101656.38;1652225;84;21184;-41
2020/12/16 07:10:36;;;;;;;;;;;;;;;3.64;68.84;101656.83;1643237;85;21170;-41
2020/12/16 07:13:24;;;;;;;12.95;10.13;;;;;;;3.60;68.75;101659.51;1647954;85;20441;-42
2020/12/16 07:15:59;;;;;;;17.17;12.37;;;;;;;3.55;68.58;101652.96;1647044;85;21158;-41
2020/12/16 07:18:47;;;;;;;13.15;10.15;;;;;;;3.52;68.65;101655.64;1647823;85;21188;-46
2020/12/16 07:21:22;;;;;;;14.63;11.08;;;;;;;3.54;68.69;101662.23;1653805;84;21711;-49
2020/12/16 07:24:06;;;;;;;11.08;9.95;;;;;;;3.56;68.69;101663.96;1656423;84;21142;-44
2020/12/16 07:26:50;;;;;;;11.93;10.78;;;;;;;3.57;68.93;101660.87;1653535;84;21357;-42
2020/12/16 07:29:32;;;;;;;17.23;14.25;;;;;;;3.60;69.21;101659.51;1652453;84;21186;-44
2020/12/16 07:32:12;;;;;;;12.30;11.05;;;;;;;3.62;69.37;101663.02;1634584;85;21333;-42
2020/12/16 07:34:47;;;;;;;14.43;11.80;;;;;;;3.61;69.44;101662.59;1639022;85;21190;-42
2020/12/16 07:37:17;;;;;;;12.33;11.12;;;;;;;3.62;69.20;101660.37;1639158;85;21308;-40
2020/12/16 07:39:50;;;;;;;15.23;10.98;;;;;;;3.63;69.13;101664.33;1635660;85;21154;-42
2020/12/16 07:42:43;;;;;;;20.68;17.73;;;;;;;3.69;68.98;101656.78;1876706;74;28480;-43
2020/12/16 07:45:11;;;;;;;14.45;12.98;;;;;;;3.68;69.09;101657.23;1862713;75;21140;-39
2020/12/16 07:47:40;;;;;;;17.17;13.18;;;;;;;3.80;69.12;101655.33;1862750;75;21124;-44
2020/12/16 07:50:11;;;;;;;13.35;12.03;;;;;;;3.81;69.01;101655.32;1774927;78;21161;-40
2020/12/16 07:52:39;;;;;;;16.55;12.37;;;;;;;3.82;68.83;101656.19;1767800;78;21157;-42
2020/12/16 07:55:07;;;;;;;12.37;11.10;;;;;;;3.83;68.82;101660.56;1776182;78;21143;-42
2020/12/16 07:57:35;;;;;;;10.93;9.70;;;;;;;3.85;68.77;101654.83;1775644;78;21147;-44
2020/12/16 08:00:04;;;;;;;15.28;11.22;;;;;;;3.86;68.79;101653.50;1765730;79;21136;-43
2020/12/16 08:02:34;;;;;;;;;;;;;;;3.88;68.69;101658.32;1783115;78;21160;-42
2020/12/16 08:05:04;;;;;;;11.30;10.10;;;;;;;3.88;68.60;101658.32;1799321;78;20145;-40
2020/12/16 08:07:32;;;;;;;;;;;;;;;3.89;68.55;101661.38;1788554;78;21117;-42
2020/12/16 08:10:05;;;;;;;15.23;11.45;;;;;;;3.90;68.46;101660.92;1803351;78;20429;-42
2020/12/16 08:12:36;;;;;;;12.28;10.68;;;;;;;3.90;68.47;101655.19;1794003;77;21129;-41
2020/12/16 08:15:15;;;;;;;;;;;;;;;3.89;68.51;101660.50;1798902;77;21209;-43
2020/12/16 08:17:43;;;;;;;10.98;9.60;;;;;;;3.89;68.60;101664.47;1760706;79;20193;-40
2020/12/16 08:20:20;;;;;;;15.10;11.15;;;;;;;3.88;68.36;101667.55;1785023;78;21141;-42
2020/12/16 08:22:49;;;;;;;11.48;9.93;;;;;;;3.85;67.97;101662.29;1758420;79;21750;-42
2020/12/16 08:25:18;;;;;;;12.80;10.88;;;;;;;3.85;68.02;101664.92;1762458;79;21176;-44
2020/12/16 08:27:52;;;;;;;11.68;9.93;;;;;;;3.86;68.08;101662.73;1769739;78;21120;-43
2020/12/16 08:30:22;;;;;;;10.93;9.70;;;;;;;3.86;68.01;101657.91;1771918;78;21573;-41
2020/12/16 08:33:04;;;;;;;11.25;10.10;;;;;;;3.86;67.98;101659.23;1761267;78;21121;-41
2020/12/16 08:35:41;;;;;;;11.55;9.53;;;;;;;3.86;68.00;101657.45;1746292;78;21163;-43
2020/12/16 08:38:09;;;;;;;42.40;33.30;;;;;;;3.90;67.89;101653.00;1770000;78;21289;-40
2020/12/16 08:40:40;;;;;;;15.32;12.55;;;;;;;3.91;67.79;101645.53;1774602;78;21185;-41
2020/12/16 08:43:29;;;;;;;;;;;;;;;3.91;67.77;101646.84;1767883;78;21419;-42
2020/12/16 08:46:05;;;;;;;9.98;8.78;;;;;;;3.89;67.89;101649.50;1776464;78;20643;-41
2020/12/16 08:48:50;;;;;;;20.72;18.40;;;;;;;3.87;67.83;101647.31;1744629;79;21485;-44
2020/12/16 08:51:23;;;;;;;11.50;8.95;;;;;;;3.87;67.97;101649.09;1777587;78;21288;-39
2020/12/16 08:53:58;;;;;;;9.35;8.35;;;;;;;3.86;67.95;101650.86;1798574;77;21451;-39
2020/12/16 08:56:33;;;;;;;8.23;7.08;;;;;;;3.86;68.08;101653.50;1747226;80;21140;-42
2020/12/16 08:59:15;;;;;;;8.70;7.50;;;;;;;3.86;67.92;101656.14;1757194;79;21170;-43
2020/12/16 09:01:47;;;;;;;9.18;7.72;;;;;;;3.82;67.65;101657.05;1798563;78;21144;-41
2020/12/16 09:04:32;;;;;;;9.08;8.00;;;;;;;3.75;67.61;101658.02;1772044;78;21156;-40
2020/12/16 09:07:14;;;;;;;8.90;7.92;;;;;;;3.71;67.79;101655.45;1777826;78;21437;-40
2020/12/16 09:09:51;;;;;;;10.38;8.93;;;;;;;3.68;67.96;101660.33;1766053;79;21153;-41
2020/12/16 09:12:21;;;;;;;9.30;8.25;;;;;;;3.66;68.24;101653.73;1785421;78;21634;-44
2020/12/16 09:14:55;;;;;;;9.43;8.33;;;;;;;3.69;68.38;101648.87;1790586;77;21124;-46
2020/12/16 09:17:24;;;;;;;9.70;8.03;;;;;;;3.66;68.03;101648.91;1801798;77;21145;-46
2020/12/16 09:19:51;;;;;;;9.03;6.85;;;;;;;3.59;68.18;101649.41;1798603;77;21144;-45
2020/12/16 09:22:25;;;;;;;8.55;7.65;;;;;;;3.55;68.31;101652.96;1798306;77;21751;-42
2020/12/16 09:24:54;;;;;;;8.58;6.97;;;;;;;3.55;68.48;101648.14;1794668;77;21149;-41
2020/12/16 09:27:22;;;;;;;7.25;5.72;;;;;;;3.55;68.45;101650.77;1800363;77;21144;-41
2020/12/16 09:29:49;;;;;;;8.50;6.05;;;;;;;3.55;68.43;101648.14;1768087;79;21157;-41
2020/12/16 09:32:25;;;;;;;8.08;5.65;;;;;;;3.55;68.29;101649.45;1767987;79;21657;-42
2020/12/16 09:34:54;;;;;;;6.65;5.65;;;;;;;3.52;68.22;101647.72;1747535;80;21140;-41
2020/12/16 09:37:25;;;;;;;5.85;5.00;;;;;;;3.53;68.28;101645.95;1759678;79;21171;-42
2020/12/16 09:40:08;;;;;;;8.10;6.05;;;;;;;3.52;68.20;101641.58;1758497;79;21144;-44
2020/12/16 09:42:37;;;;;;;7.10;5.25;;;;;;;3.50;68.24;101636.31;1750451;79;21117;-45
2020/12/16 09:45:13;;;;;;;7.87;5.40;;;;;;;3.49;68.32;101639.85;1764843;78;21148;-41
2020/12/16 09:47:45;;;;;;;6.92;5.90;;;;;;;3.50;68.39;101636.31;1748636;78;21236;-41
2020/12/16 09:50:12;;;;;;;6.67;5.30;;;;;;;3.52;68.49;101633.22;1774729;79;21439;-43
2020/12/16 09:52:40;;;;;;;6.00;4.78;;;;;;;3.54;68.42;101623.98;1750304;78;21160;-41
2020/12/16 09:55:15;;;;;;;5.95;5.35;;;;;;;3.57;68.50;101626.58;1755582;79;21755;-45
2020/12/16 09:57:43;;;;;;;12.25;9.13;;;;;;;3.60;68.53;101623.90;1752963;79;21172;-44
2020/12/16 10:00:11;;;;;;;8.00;6.72;;;;;;;3.64;68.53;101626.48;1758583;79;21207;-42
2020/12/16 10:02:39;;;;;;;6.85;5.83;;;;;;;3.64;68.28;101627.80;1747061;80;21576;-42
2020/12/16 10:05:06;;;;;;;7.85;5.80;;;;;;;3.61;68.17;101625.21;1753977;80;21160;-42
2020/12/16 10:07:34;;;;;;;7.60;5.83;;;;;;;3.63;68.22;101623.89;1756804;79;21185;-40
2020/12/16 10:10:03;;;;;;;12.18;9.38;;;;;;;3.62;68.17;101619.03;1750247;80;21133;-43
2020/12/16 10:12:30;;;;;;;11.30;9.23;;;;;;;3.60;68.29;101620.84;1769422;79;21163;-42
2020/12/16 10:14:57;;;;;;;13.72;11.05;;;;;;;3.59;68.46;101615.57;1752779;79;21156;-41
2020/12/16 10:17:25;;;;;;;8.25;7.00;;;;;;;3.58;68.53;101609.84;1794245;78;21136;-43
2020/12/16 10:19:53;;;;;;;9.75;7.33;;;;;;;3.62;68.63;101615.52;1785794;77;21141;-42
2020/12/16 10:22:21;;;;;;;10.15;7.30;;;;;;;3.65;68.75;101611.53;1774151;78;21611;-43
2020/12/16 10:24:48;;;;;;;9.15;8.13;;;;;;;3.67;68.60;101611.06;1768439;78;21176;-40
2020/12/16 10:27:17;;;;;;;10.82;9.18;;;;;;;3.67;68.66;101615.02;1769907;78;22037;-44
2020/12/16 10:29:45;;;;;;;11.57;8.45;;;;;;;3.66;68.36;101614.16;1755234;78;21723;-44
2020/12/16 10:32:14;;;;;;;12.07;10.35;;;;;;;3.65;68.39;101608.47;1767169;78;21153;-43
2020/12/16 10:34:42;;;;;;;12.20;10.48;;;;;;;3.64;68.42;101607.16;1763733;78;21317;-40
2020/12/16 10:37:10;;;;;;;12.53;10.15;;;;;;;3.62;68.12;101610.25;1764600;78;21144;-42
2020/12/16 10:39:37;;;;;;;14.07;10.48;;;;;;;3.61;68.16;101604.11;1800264;77;21077;-45
2020/12/16 10:42:04;;;;;;;14.40;11.40;;;;;;;3.62;68.25;101596.61;1783427;78;21159;-43
2020/12/16 10:44:32;;;;;;;11.78;8.85;;;;;;;3.62;68.32;101601.88;1791010;77;21583;-41
2020/12/16 10:46:59;;;;;;;12.82;10.35;;;;;;;3.65;68.48;101604.52;1794153;77;22044;-42
2020/12/16 10:49:27;;;;;;;17.40;14.53;;;;;;;3.69;68.53;101604.02;1739445;80;21521;-42
2020/12/16 10:51:55;;;;;;;14.07;12.37;;;;;;;3.69;68.33;101600.05;1761079;78;21130;-42
2020/12/16 10:54:23;;;;;;;15.93;11.73;;;;;;;3.69;68.34;101598.73;1768422;78;21168;-46
2020/12/16 10:56:54;;;;;;;14.47;12.25;;;;;;;3.67;68.41;101590.83;1759368;79;21134;-49
2020/12/16 10:59:22;;;;;;;14.65;12.10;;;;;;;3.66;68.38;101598.78;1769194;79;21633;-44
2020/12/16 11:01:50;;;;;;;15.23;11.53;;;;;;;3.64;68.47;101598.78;1759174;80;21161;-41
2020/12/16 11:04:17;;;;;;;13.68;11.50;;;;;;;3.64;68.56;101596.60;1757295;79;21184;-44
2020/12/16 11:06:47;;;;;;;16.40;12.15;;;;;;;3.65;68.56;101595.27;1752283;79;21166;-39
2020/12/16 11:09:17;;;;;;;16.45;13.55;;;;;;;3.67;68.74;101598.74;1767667;78;21102;-42
2020/12/16 11:11:50;;;;;;;16.55;13.18;;;;;;;3.69;68.80;101597.41;1763052;78;21157;-42
2020/12/16 11:14:18;;;;;;;16.70;12.35;;;;;;;3.69;68.68;101596.97;1784385;79;21149;-41
2020/12/16 11:16:45;;;;;;;19.25;14.35;;;;;;;3.71;68.58;101596.09;1800610;77;21164;-43
2020/12/16 11:19:15;;;;;;;18.10;12.60;;;;;;;3.66;68.38;101593.05;1766015;78;21163;-41
2020/12/16 11:21:48;;;;;;;15.60;12.13;;;;;;;3.64;68.48;101588.23;1790831;77;21464;-42
2020/12/16 11:24:18;;;;;;;14.83;11.10;;;;;;;3.62;68.47;101583.41;1791838;77;21129;-43
2020/12/16 11:26:47;;;;;;;16.50;12.90;;;;;;;3.63;68.57;101583.00;1777991;78;21160;-45
2020/12/16 11:29:15;;;;;;;15.03;12.70;;;;;;;3.64;68.54;101582.09;1741005;80;22182;-43
2020/12/16 11:31:45;;;;;;;16.73;13.00;;;;;;;3.61;68.62;101578.17;1765802;78;21662;-44
2020/12/16 11:34:14;;;;;;;36.98;28.92;;;;;;;3.62;68.74;101572.86;1762520;78;21148;-41
2020/12/16 11:36:43;;;;;;;20.90;15.58;;;;;;;3.62;68.71;101574.63;1766590;78;21148;-44
2020/12/16 11:39:11;;;;;;;17.00;13.93;;;;;;;3.61;68.76;101574.22;1807107;77;21143;-46
2020/12/16 11:41:47;;;;;;;15.15;12.18;;;;;;;3.60;68.76;101575.99;1754233;79;21192;-43